This is the latest recevied weather packets stored in our database for station/object EA5HRE-13. If no packets are shown the sender has not sent any weather packets the latest 10 day(s).
| Time | Temp. | Humidity | Pressure | Rain* | Wind** | Luminosity | Snow |
|---|---|---|---|---|---|---|---|
| 1787759734 | 27.22° C | 70% | 1009.8 hPa | 0 mm | - | - | - |
| 1787758834 | 28.33° C | 68% | 1009.7 hPa | 0 mm | - | - | - |
| 1787757933 | 28.33° C | 67% | 1009.8 hPa | 0 mm | - | - | - |
| 1787757033 | 28.33° C | 67% | 1009.9 hPa | 0 mm | - | - | - |
| 1787756133 | 28.33° C | 67% | 1010 hPa | 0 mm | - | - | - |
| 1787755232 | 28.89° C | 66% | 1010.1 hPa | 0 mm | - | - | - |
| 1787754332 | 28.89° C | 66% | 1010.3 hPa | 0 mm | - | - | - |
| 1787753431 | 28.89° C | 65% | 1010.4 hPa | 0 mm | - | - | - |
| 1787752531 | 29.44° C | 64% | 1010.6 hPa | 0 mm | - | - | - |
| 1787751631 | 29.44° C | 63% | 1010.7 hPa | 0 mm | - | - | - |
| 1787750730 | 29.44° C | 62% | 1010.9 hPa | 0 mm | - | - | - |
| 1787749829 | 30° C | 60% | 1011 hPa | 0 mm | - | - | - |
| 1787748930 | 30° C | 58% | 1011.1 hPa | 0 mm | - | - | - |
| 1787748029 | 30.56° C | 55% | 1011.1 hPa | 0 mm | - | - | - |
| 1787747129 | 30.56° C | 53% | 1011.1 hPa | 0 mm | - | - | - |
| 1787746229 | 30.56° C | 52% | 1011.2 hPa | 0 mm | - | - | - |
| 1787745328 | 30° C | 52% | 1011.8 hPa | 0 mm | - | - | - |
| 1787744427 | 29.44° C | 55% | 1012 hPa | 0 mm | - | - | - |
| 1787743527 | 28.89° C | 58% | 1012.3 hPa | 0 mm | - | - | - |
| 1787742627 | 28.89° C | 60% | 1012.5 hPa | 0 mm | - | - | - |
| 1787741726 | 28.33° C | 62% | 1012.6 hPa | 0 mm | - | - | - |
| 1787739925 | 28.33° C | 64% | 1012.8 hPa | 0 mm | - | - | - |
| 1787739025 | 28.33° C | 65% | 1012.8 hPa | 0 mm | - | - | - |
| 1787738125 | 28.33° C | 65% | 1012.7 hPa | 0 mm | - | - | - |
| 1787737225 | 27.78° C | 69% | 1012.6 hPa | 0 mm | - | - | - |
* Rain latest hour (hover to see other rain measurements)
** Current wind speed in m/s (hover to see current wind gust speed)